sensor_id;sensor_type;location;lat;lon;timestamp;pressure;altitude;pressure_sealevel;temperature;humidity
67697;BME280;54486;51.442;6.778;2023-01-30T00:01:22;101764.63;;;3.81;96.86
67697;BME280;54486;51.442;6.778;2023-01-30T00:03:54;101763.00;;;3.83;97.40
67697;BME280;54486;51.442;6.778;2023-01-30T00:06:22;101763.00;;;3.83;97.42
67697;BME280;54486;51.442;6.778;2023-01-30T00:08:50;101742.59;;;3.90;97.73
67697;BME280;54486;51.442;6.778;2023-01-30T00:11:18;101723.75;;;3.93;97.42
67697;BME280;54486;51.442;6.778;2023-01-30T00:13:46;101723.84;;;3.96;97.46
67697;BME280;54486;51.442;6.778;2023-01-30T00:16:14;101721.44;;;4.00;96.90
67697;BME280;54486;51.442;6.778;2023-01-30T00:18:41;101727.38;;;3.98;97.43
67697;BME280;54486;51.442;6.778;2023-01-30T00:21:09;101722.31;;;4.01;97.65
67697;BME280;54486;51.442;6.778;2023-01-30T00:23:37;101718.19;;;4.06;97.82
67697;BME280;54486;51.442;6.778;2023-01-30T00:26:05;101711.38;;;4.08;97.88
67697;BME280;54486;51.442;6.778;2023-01-30T00:28:32;101703.63;;;4.08;98.23
67697;BME280;54486;51.442;6.778;2023-01-30T00:30:59;101693.50;;;4.14;97.87
67697;BME280;54486;51.442;6.778;2023-01-30T00:33:27;101701.50;;;4.21;97.69
67697;BME280;54486;51.442;6.778;2023-01-30T00:35:54;101682.56;;;4.21;97.99
67697;BME280;54486;51.442;6.778;2023-01-30T00:38:22;101679.13;;;4.22;97.77
67697;BME280;54486;51.442;6.778;2023-01-30T00:40:50;101666.13;;;4.19;98.14
67697;BME280;54486;51.442;6.778;2023-01-30T00:43:18;101661.16;;;4.25;98.43
67697;BME280;54486;51.442;6.778;2023-01-30T00:46:04;101652.47;;;4.23;98.69
67697;BME280;54486;51.442;6.778;2023-01-30T00:49:11;101664.50;;;4.22;98.54
67697;BME280;54486;51.442;6.778;2023-01-30T00:51:38;101659.69;;;4.33;98.62
67697;BME280;54486;51.442;6.778;2023-01-30T00:54:04;101663.78;;;4.26;98.37
67697;BME280;54486;51.442;6.778;2023-01-30T00:56:31;101656.06;;;4.28;98.27
67697;BME280;54486;51.442;6.778;2023-01-30T00:58:58;101651.00;;;4.31;97.85
67697;BME280;54486;51.442;6.778;2023-01-30T01:01:25;101638.28;;;4.37;98.21
67697;BME280;54486;51.442;6.778;2023-01-30T01:03:52;101642.63;;;4.38;98.08
67697;BME280;54486;51.442;6.778;2023-01-30T01:06:19;101639.41;;;4.45;98.15
67697;BME280;54486;51.442;6.778;2023-01-30T01:08:47;101638.34;;;4.39;98.94
67697;BME280;54486;51.442;6.778;2023-01-30T01:11:14;101633.97;;;4.36;99.00
67697;BME280;54486;51.442;6.778;2023-01-30T01:13:54;101630.34;;;4.31;99.78
67697;BME280;54486;51.442;6.778;2023-01-30T01:16:21;101628.88;;;4.39;100.00
67697;BME280;54486;51.442;6.778;2023-01-30T01:18:48;101618.66;;;4.42;100.00
67697;BME280;54486;51.442;6.778;2023-01-30T01:21:16;101609.28;;;4.46;100.00
67697;BME280;54486;51.442;6.778;2023-01-30T01:23:49;101615.25;;;4.43;100.00
67697;BME280;54486;51.442;6.778;2023-01-30T01:26:17;101641.91;;;4.42;100.00
67697;BME280;54486;51.442;6.778;2023-01-30T01:28:44;101624.09;;;4.51;100.00
67697;BME280;54486;51.442;6.778;2023-01-30T01:31:12;101615.53;;;4.52;100.00
67697;BME280;54486;51.442;6.778;2023-01-30T01:33:40;101617.16;;;4.50;100.00
67697;BME280;54486;51.442;6.778;2023-01-30T01:36:07;101613.84;;;4.54;100.00
67697;BME280;54486;51.442;6.778;2023-01-30T01:38:34;101618.19;;;4.55;100.00
67697;BME280;54486;51.442;6.778;2023-01-30T01:41:01;101617.47;;;4.59;99.29
67697;BME280;54486;51.442;6.778;2023-01-30T01:43:30;101627.69;;;4.56;99.90
67697;BME280;54486;51.442;6.778;2023-01-30T01:45:59;101604.53;;;4.59;99.92
67697;BME280;54486;51.442;6.778;2023-01-30T01:48:28;101612.28;;;4.59;99.99
67697;BME280;54486;51.442;6.778;2023-01-30T01:50:57;101596.88;;;4.62;99.82
67697;BME280;54486;51.442;6.778;2023-01-30T01:53:29;101596.97;;;4.65;99.73
67697;BME280;54486;51.442;6.778;2023-01-30T01:55:58;101591.19;;;4.74;99.91
67697;BME280;54486;51.442;6.778;2023-01-30T01:58:38;101575.59;;;4.71;99.86
67697;BME280;54486;51.442;6.778;2023-01-30T02:01:07;101583.28;;;4.69;99.78
67697;BME280;54486;51.442;6.778;2023-01-30T02:03:36;101591.97;;;4.71;99.68
67697;BME280;54486;51.442;6.778;2023-01-30T02:06:07;101573.97;;;4.74;99.89
67697;BME280;54486;51.442;6.778;2023-01-30T02:08:39;101558.56;;;4.79;99.70
67697;BME280;54486;51.442;6.778;2023-01-30T02:11:16;101566.28;;;4.77;99.70
67697;BME280;54486;51.442;6.778;2023-01-30T02:13:47;101563.88;;;4.84;99.97
67697;BME280;54486;51.442;6.778;2023-01-30T02:16:18;101546.78;;;4.89;99.72
67697;BME280;54486;51.442;6.778;2023-01-30T02:18:45;101538.34;;;4.94;99.35
67697;BME280;54486;51.442;6.778;2023-01-30T02:21:23;101531.41;;;4.95;99.47
67697;BME280;54486;51.442;6.778;2023-01-30T02:31:52;101510.00;;;4.99;99.89
67697;BME280;54486;51.442;6.778;2023-01-30T02:39:46;101493.81;;;5.06;99.59
67697;BME280;54486;51.442;6.778;2023-01-30T02:47:36;101499.88;;;5.08;99.78
67697;BME280;54486;51.442;6.778;2023-01-30T02:50:07;101492.25;;;5.12;100.00
67697;BME280;54486;51.442;6.778;2023-01-30T02:52:39;101495.88;;;5.19;100.00
67697;BME280;54486;51.442;6.778;2023-01-30T02:55:09;101496.75;;;5.19;100.00
67697;BME280;54486;51.442;6.778;2023-01-30T02:57:46;101496.72;;;5.18;100.00
67697;BME280;54486;51.442;6.778;2023-01-30T03:00:15;101487.31;;;5.20;100.00
67697;BME280;54486;51.442;6.778;2023-01-30T03:03:08;101492.47;;;5.20;100.00
67697;BME280;54486;51.442;6.778;2023-01-30T03:10:53;101477.03;;;5.24;100.00
67697;BME280;54486;51.442;6.778;2023-01-30T03:16:08;101466.75;;;5.26;100.00
67697;BME280;54486;51.442;6.778;2023-01-30T03:18:39;101464.25;;;5.29;100.00
67697;BME280;54486;51.442;6.778;2023-01-30T03:21:07;101465.13;;;5.29;100.00
67697;BME280;54486;51.442;6.778;2023-01-30T03:23:35;101454.78;;;5.29;100.00
67697;BME280;54486;51.442;6.778;2023-01-30T03:26:03;101457.31;;;5.28;100.00
67697;BME280;54486;51.442;6.778;2023-01-30T03:28:32;101454.03;;;5.35;100.00
67697;BME280;54486;51.442;6.778;2023-01-30T03:31:01;101431.50;;;5.31;100.00
67697;BME280;54486;51.442;6.778;2023-01-30T03:33:28;101425.44;;;5.30;100.00
67697;BME280;54486;51.442;6.778;2023-01-30T03:35:56;101419.66;;;5.39;100.00
67697;BME280;54486;51.442;6.778;2023-01-30T03:38:23;101433.25;;;5.32;100.00
67697;BME280;54486;51.442;6.778;2023-01-30T03:40:51;101433.25;;;5.32;100.00
67697;BME280;54486;51.442;6.778;2023-01-30T03:43:18;101433.34;;;5.35;100.00
67697;BME280;54486;51.442;6.778;2023-01-30T03:45:46;101422.91;;;5.32;100.00
67697;BME280;54486;51.442;6.778;2023-01-30T03:48:12;101443.69;;;5.35;100.00
67697;BME280;54486;51.442;6.778;2023-01-30T03:50:39;101426.41;;;5.34;100.00
67697;BME280;54486;51.442;6.778;2023-01-30T03:53:06;101428.16;;;5.35;100.00
67697;BME280;54486;51.442;6.778;2023-01-30T03:55:33;101428.16;;;5.35;100.00
67697;BME280;54486;51.442;6.778;2023-01-30T03:58:02;101414.47;;;5.39;100.00
67697;BME280;54486;51.442;6.778;2023-01-30T04:00:30;101417.16;;;5.44;100.00
67697;BME280;54486;51.442;6.778;2023-01-30T04:02:56;101399.78;;;5.40;100.00
67697;BME280;54486;51.442;6.778;2023-01-30T04:05:24;101401.53;;;5.41;100.00
67697;BME280;54486;51.442;6.778;2023-01-30T04:07:50;101397.13;;;5.35;100.00
67697;BME280;54486;51.442;6.778;2023-01-30T04:10:17;101388.50;;;5.36;100.00
67697;BME280;54486;51.442;6.778;2023-01-30T04:12:45;101409.13;;;5.33;100.00
67697;BME280;54486;51.442;6.778;2023-01-30T04:15:12;101402.22;;;5.32;100.00
67697;BME280;54486;51.442;6.778;2023-01-30T04:17:41;101400.59;;;5.37;100.00
67697;BME280;54486;51.442;6.778;2023-01-30T04:20:09;101408.34;;;5.37;100.00
67697;BME280;54486;51.442;6.778;2023-01-30T04:22:36;101410.88;;;5.34;100.00
67697;BME280;54486;51.442;6.778;2023-01-30T04:25:03;101400.53;;;5.34;100.00
67697;BME280;54486;51.442;6.778;2023-01-30T04:27:30;101396.31;;;5.38;100.00
67697;BME280;54486;51.442;6.778;2023-01-30T04:29:57;101386.84;;;5.38;100.00
67697;BME280;54486;51.442;6.778;2023-01-30T04:32:26;101391.88;;;5.32;100.00
67697;BME280;54486;51.442;6.778;2023-01-30T04:34:53;101390.25;;;5.37;100.00
67697;BME280;54486;51.442;6.778;2023-01-30T04:37:21;101385.00;;;5.34;100.00
67697;BME280;54486;51.442;6.778;2023-01-30T04:39:48;101393.84;;;5.42;100.00
67697;BME280;54486;51.442;6.778;2023-01-30T04:42:15;101393.72;;;5.38;100.00
67697;BME280;54486;51.442;6.778;2023-01-30T04:44:42;101378.13;;;5.36;100.00
67697;BME280;54486;51.442;6.778;2023-01-30T04:47:09;101380.03;;;5.43;100.00
67697;BME280;54486;51.442;6.778;2023-01-30T04:49:36;101376.56;;;5.41;100.00
67697;BME280;54486;51.442;6.778;2023-01-30T04:52:03;101374.78;;;5.40;100.00
67697;BME280;54486;51.442;6.778;2023-01-30T04:54:30;101388.66;;;5.42;100.00
67697;BME280;54486;51.442;6.778;2023-01-30T04:56:57;101383.50;;;5.42;100.00
67697;BME280;54486;51.442;6.778;2023-01-30T04:59:24;101378.44;;;5.48;100.00
67697;BME280;54486;51.442;6.778;2023-01-30T05:01:51;101380.09;;;5.46;100.00
67697;BME280;54486;51.442;6.778;2023-01-30T05:04:18;101380.97;;;5.47;100.00
67697;BME280;54486;51.442;6.778;2023-01-30T05:06:45;101374.97;;;5.48;100.00
67697;BME280;54486;51.442;6.778;2023-01-30T05:09:12;101375.84;;;5.48;100.00
67697;BME280;54486;51.442;6.778;2023-01-30T05:11:39;101382.75;;;5.48;100.00
67697;BME280;54486;51.442;6.778;2023-01-30T05:14:07;101382.00;;;5.53;100.00
67697;BME280;54486;51.442;6.778;2023-01-30T05:16:34;101376.81;;;5.53;100.00
67697;BME280;54486;51.442;6.778;2023-01-30T05:19:00;101379.41;;;5.53;100.00
67697;BME280;54486;51.442;6.778;2023-01-30T05:21:28;101385.41;;;5.52;100.00
67697;BME280;54486;51.442;6.778;2023-01-30T05:23:55;101359.69;;;5.58;100.00
67697;BME280;54486;51.442;6.778;2023-01-30T05:26:23;101351.25;;;5.68;100.00
67697;BME280;54486;51.442;6.778;2023-01-30T05:28:51;101358.06;;;5.63;100.00
67697;BME280;54486;51.442;6.778;2023-01-30T05:31:19;101365.13;;;5.70;100.00
67697;BME280;54486;51.442;6.778;2023-01-30T05:33:47;101363.31;;;5.66;100.00
67697;BME280;54486;51.442;6.778;2023-01-30T05:36:16;101358.34;;;5.75;100.00
67697;BME280;54486;51.442;6.778;2023-01-30T05:38:43;101360.03;;;5.73;100.00
67697;BME280;54486;51.442;6.778;2023-01-30T05:41:11;101352.19;;;5.70;100.00
67697;BME280;54486;51.442;6.778;2023-01-30T05:43:38;101349.72;;;5.76;100.00
67697;BME280;54486;51.442;6.778;2023-01-30T05:46:06;101358.41;;;5.78;100.00
67697;BME280;54486;51.442;6.778;2023-01-30T05:48:35;101360.09;;;5.76;100.00
67697;BME280;54486;51.442;6.778;2023-01-30T05:51:02;101360.09;;;5.76;100.00
67697;BME280;54486;51.442;6.778;2023-01-30T05:53:29;101375.75;;;5.82;100.00
67697;BME280;54486;51.442;6.778;2023-01-30T05:55:57;101369.69;;;5.80;100.00
67697;BME280;54486;51.442;6.778;2023-01-30T05:58:25;101368.75;;;5.78;100.00
67697;BME280;54486;51.442;6.778;2023-01-30T06:00:52;101368.88;;;5.84;100.00
67697;BME280;54486;51.442;6.778;2023-01-30T06:03:20;101372.19;;;5.77;100.00
67697;BME280;54486;51.442;6.778;2023-01-30T06:05:47;101371.47;;;5.84;100.00
67697;BME280;54486;51.442;6.778;2023-01-30T06:08:14;101367.16;;;5.83;100.00
67697;BME280;54486;51.442;6.778;2023-01-30T06:10:41;101375.91;;;5.89;100.00
67697;BME280;54486;51.442;6.778;2023-01-30T06:13:08;101381.22;;;5.95;100.00
67697;BME280;54486;51.442;6.778;2023-01-30T06:15:37;101376.09;;;5.98;100.00
67697;BME280;54486;51.442;6.778;2023-01-30T06:18:04;101392.63;;;6.03;100.00
67697;BME280;54486;51.442;6.778;2023-01-30T06:20:31;101384.00;;;6.04;100.00
67697;BME280;54486;51.442;6.778;2023-01-30T06:22:58;101375.56;;;6.12;100.00
67697;BME280;54486;51.442;6.778;2023-01-30T06:25:25;101378.09;;;6.11;100.00
67697;BME280;54486;51.442;6.778;2023-01-30T06:27:53;101372.03;;;6.09;100.00
67697;BME280;54486;51.442;6.778;2023-01-30T06:30:21;101379.88;;;6.12;100.00
67697;BME280;54486;51.442;6.778;2023-01-30T06:32:51;101371.28;;;6.16;100.00
67697;BME280;54486;51.442;6.778;2023-01-30T06:35:18;101373.03;;;6.17;100.00
67697;BME280;54486;51.442;6.778;2023-01-30T06:37:45;101373.03;;;6.17;100.00
67697;BME280;54486;51.442;6.778;2023-01-30T06:40:12;101376.63;;;6.22;100.00
67697;BME280;54486;51.442;6.778;2023-01-30T06:42:43;101378.31;;;6.21;100.00
67697;BME280;54486;51.442;6.778;2023-01-30T06:45:10;101388.72;;;6.23;100.00
67697;BME280;54486;51.442;6.778;2023-01-30T06:47:47;101402.59;;;6.25;100.00
67697;BME280;54486;51.442;6.778;2023-01-30T06:50:15;101393.94;;;6.26;100.00
67697;BME280;54486;51.442;6.778;2023-01-30T06:52:47;101411.31;;;6.30;100.00
67697;BME280;54486;51.442;6.778;2023-01-30T06:55:15;101408.78;;;6.31;100.00
67697;BME280;54486;51.442;6.778;2023-01-30T06:57:42;101397.53;;;6.31;100.00
67697;BME280;54486;51.442;6.778;2023-01-30T07:00:10;101408.00;;;6.37;100.00
67697;BME280;54486;51.442;6.778;2023-01-30T07:02:38;101392.53;;;6.42;100.00
67697;BME280;54486;51.442;6.778;2023-01-30T07:05:06;101406.47;;;6.48;100.00
67697;BME280;54486;51.442;6.778;2023-01-30T07:07:34;101404.81;;;6.50;100.00
67697;BME280;54486;51.442;6.778;2023-01-30T07:10:02;101397.81;;;6.46;100.00
67697;BME280;54486;51.442;6.778;2023-01-30T07:12:34;101394.38;;;6.47;100.00
67697;BME280;54486;51.442;6.778;2023-01-30T07:15:02;101392.69;;;6.49;100.00
67697;BME280;54486;51.442;6.778;2023-01-30T07:17:29;101401.28;;;6.48;100.00
67697;BME280;54486;51.442;6.778;2023-01-30T07:19:56;101389.31;;;6.53;100.00
67697;BME280;54486;51.442;6.778;2023-01-30T07:22:23;101390.97;;;6.51;100.00
67697;BME280;54486;51.442;6.778;2023-01-30T07:24:51;101401.41;;;6.54;100.00
67697;BME280;54486;51.442;6.778;2023-01-30T07:27:18;101404.81;;;6.50;100.00
67697;BME280;54486;51.442;6.778;2023-01-30T07:29:45;101404.81;;;6.50;100.00
67697;BME280;54486;51.442;6.778;2023-01-30T07:32:15;101409.19;;;6.54;100.00
67697;BME280;54486;51.442;6.778;2023-01-30T07:34:44;101423.91;;;6.55;100.00
67697;BME280;54486;51.442;6.778;2023-01-30T07:37:11;101423.84;;;6.51;100.00
67697;BME280;54486;51.442;6.778;2023-01-30T07:39:38;101426.56;;;6.58;100.00
67697;BME280;54486;51.442;6.778;2023-01-30T07:42:05;101432.72;;;6.63;100.00
67697;BME280;54486;51.442;6.778;2023-01-30T07:44:33;101430.84;;;6.56;100.00
67697;BME280;54486;51.442;6.778;2023-01-30T07:47:01;101430.69;;;6.49;100.00
67697;BME280;54486;51.442;6.778;2023-01-30T07:49:28;101431.50;;;6.46;100.00
67697;BME280;54486;51.442;6.778;2023-01-30T07:51:56;101430.81;;;6.55;100.00
67697;BME280;54486;51.442;6.778;2023-01-30T07:54:22;101441.97;;;6.51;100.00
67697;BME280;54486;51.442;6.778;2023-01-30T07:56:50;101442.88;;;6.54;100.00
67697;BME280;54486;51.442;6.778;2023-01-30T07:59:17;101446.28;;;6.50;100.00
67697;BME280;54486;51.442;6.778;2023-01-30T08:01:44;101449.19;;;6.65;100.00
67697;BME280;54486;51.442;6.778;2023-01-30T08:04:11;101440.22;;;6.50;100.00
67697;BME280;54486;51.442;6.778;2023-01-30T08:06:38;101436.81;;;6.51;100.00
67697;BME280;54486;51.442;6.778;2023-01-30T08:09:05;101448.00;;;6.51;100.00
67697;BME280;54486;51.442;6.778;2023-01-30T08:11:33;101456.78;;;6.56;100.00
67697;BME280;54486;51.442;6.778;2023-01-30T08:14:00;101451.81;;;6.68;100.00
67697;BME280;54486;51.442;6.778;2023-01-30T08:16:27;101446.75;;;6.74;98.65
67697;BME280;54486;51.442;6.778;2023-01-30T08:18:54;101457.06;;;6.71;99.12
67697;BME280;54486;51.442;6.778;2023-01-30T08:21:21;101444.94;;;6.70;98.87
67697;BME280;54486;51.442;6.778;2023-01-30T08:23:48;101445.00;;;6.73;98.39
67697;BME280;54486;51.442;6.778;2023-01-30T08:26:15;101453.69;;;6.75;97.70
67697;BME280;54486;51.442;6.778;2023-01-30T08:28:42;101450.31;;;6.79;96.63
67697;BME280;54486;51.442;6.778;2023-01-30T08:31:11;101451.94;;;6.74;96.17
67697;BME280;54486;51.442;6.778;2023-01-30T08:33:39;101462.38;;;6.77;95.37
67697;BME280;54486;51.442;6.778;2023-01-30T08:36:06;101467.59;;;6.80;93.63
67697;BME280;54486;51.442;6.778;2023-01-30T08:38:33;101468.81;;;6.98;92.92
67697;BME280;54486;51.442;6.778;2023-01-30T08:41:02;101471.25;;;6.88;92.81
67697;BME280;54486;51.442;6.778;2023-01-30T08:43:30;101469.69;;;6.98;89.51
67697;BME280;54486;51.442;6.778;2023-01-30T08:45:57;101487.09;;;7.04;87.53
67697;BME280;54486;51.442;6.778;2023-01-30T08:48:24;101493.78;;;6.92;89.38
67697;BME280;54486;51.442;6.778;2023-01-30T08:50:54;101499.19;;;7.03;88.27
67697;BME280;54486;51.442;6.778;2023-01-30T08:53:22;101506.03;;;7.00;89.36
67697;BME280;54486;51.442;6.778;2023-01-30T08:55:52;101508.66;;;7.03;89.15
67697;BME280;54486;51.442;6.778;2023-01-30T08:58:19;101497.41;;;7.01;89.09
67697;BME280;54486;51.442;6.778;2023-01-30T09:00:46;101493.81;;;6.96;90.35
67697;BME280;54486;51.442;6.778;2023-01-30T09:03:15;101476.66;;;7.01;89.78
67697;BME280;54486;51.442;6.778;2023-01-30T09:05:42;101471.31;;;6.93;90.10
67697;BME280;54486;51.442;6.778;2023-01-30T09:08:09;101481.69;;;6.91;89.79
67697;BME280;54486;51.442;6.778;2023-01-30T09:10:36;101481.69;;;6.91;89.30
67697;BME280;54486;51.442;6.778;2023-01-30T09:13:03;101488.84;;;7.05;87.74
67697;BME280;54486;51.442;6.778;2023-01-30T09:15:31;101489.56;;;6.99;87.20
67697;BME280;54486;51.442;6.778;2023-01-30T09:17:58;101498.97;;;6.92;88.79
67697;BME280;54486;51.442;6.778;2023-01-30T09:20:25;101506.63;;;6.86;88.03
67697;BME280;54486;51.442;6.778;2023-01-30T09:22:52;101504.25;;;6.97;87.29
67697;BME280;54486;51.442;6.778;2023-01-30T09:25:19;101508.59;;;6.98;88.11
67697;BME280;54486;51.442;6.778;2023-01-30T09:27:49;101509.59;;;7.05;87.29
67697;BME280;54486;51.442;6.778;2023-01-30T09:30:17;101516.50;;;7.06;85.35
67697;BME280;54486;51.442;6.778;2023-01-30T09:32:44;101521.75;;;7.09;84.59
67697;BME280;54486;51.442;6.778;2023-01-30T09:35:11;101524.34;;;7.09;84.06
67697;BME280;54486;51.442;6.778;2023-01-30T09:37:45;101515.72;;;7.10;83.04
67697;BME280;54486;51.442;6.778;2023-01-30T09:40:13;101520.16;;;7.14;83.35
67697;BME280;54486;51.442;6.778;2023-01-30T09:45:20;101522.00;;;7.21;82.00
67697;BME280;54486;51.442;6.778;2023-01-30T09:47:57;101518.75;;;7.34;81.53
67697;BME280;54486;51.442;6.778;2023-01-30T09:55:32;101521.25;;;7.28;80.63
67697;BME280;54486;51.442;6.778;2023-01-30T09:57:59;101522.97;;;7.26;81.51
67697;BME280;54486;51.442;6.778;2023-01-30T10:00:34;101523.00;;;7.29;79.75
67697;BME280;54486;51.442;6.778;2023-01-30T10:05:37;101551.41;;;7.20;80.39
67697;BME280;54486;51.442;6.778;2023-01-30T10:15:51;101560.25;;;7.31;79.88
67697;BME280;54486;51.442;6.778;2023-01-30T10:18:33;101570.63;;;7.31;78.39
67697;BME280;54486;51.442;6.778;2023-01-30T10:23:54;101553.47;;;7.39;77.14
67697;BME280;54486;51.442;6.778;2023-01-30T10:26:24;101552.56;;;7.35;78.24
67697;BME280;54486;51.442;6.778;2023-01-30T10:29:02;101554.47;;;7.45;76.06
67697;BME280;54486;51.442;6.778;2023-01-30T10:31:36;101550.00;;;7.37;77.58
67697;BME280;54486;51.442;6.778;2023-01-30T10:34:08;101548.25;;;7.36;77.78
67697;BME280;54486;51.442;6.778;2023-01-30T10:39:34;101550.06;;;7.40;77.00
67697;BME280;54486;51.442;6.778;2023-01-30T10:42:16;101543.09;;;7.39;76.83
67697;BME280;54486;51.442;6.778;2023-01-30T10:44:45;101549.06;;;7.35;76.44
67697;BME280;54486;51.442;6.778;2023-01-30T10:50:16;101532.88;;;7.48;76.12
67697;BME280;54486;51.442;6.778;2023-01-30T10:55:28;101537.97;;;7.42;75.58
67697;BME280;54486;51.442;6.778;2023-01-30T11:00:41;101556.28;;;7.50;75.58
67697;BME280;54486;51.442;6.778;2023-01-30T11:08:20;101563.50;;;7.66;74.94
67697;BME280;54486;51.442;6.778;2023-01-30T11:10:48;101564.34;;;7.66;74.47
67697;BME280;54486;51.442;6.778;2023-01-30T11:13:16;101553.94;;;7.65;74.65
67697;BME280;54486;51.442;6.778;2023-01-30T11:15:44;101553.16;;;7.70;74.01
67697;BME280;54486;51.442;6.778;2023-01-30T11:18:11;101543.75;;;7.77;73.40
67697;BME280;54486;51.442;6.778;2023-01-30T11:21:06;101552.47;;;7.80;74.16
67697;BME280;54486;51.442;6.778;2023-01-30T11:23:38;101555.84;;;7.76;73.83
67697;BME280;54486;51.442;6.778;2023-01-30T11:26:05;101566.28;;;7.79;73.21
67697;BME280;54486;51.442;6.778;2023-01-30T11:28:41;101559.50;;;7.87;73.20
67697;BME280;54486;51.442;6.778;2023-01-30T11:31:15;101569.81;;;7.81;73.38
67697;BME280;54486;51.442;6.778;2023-01-30T11:34:04;101561.16;;;7.82;74.36
67697;BME280;54486;51.442;6.778;2023-01-30T11:36:32;101569.88;;;7.84;73.80
67697;BME280;54486;51.442;6.778;2023-01-30T11:39:00;101561.09;;;7.79;72.93
67697;BME280;54486;51.442;6.778;2023-01-30T11:41:29;101559.66;;;7.96;72.33
67697;BME280;54486;51.442;6.778;2023-01-30T11:44:00;101555.16;;;7.86;73.17
67697;BME280;54486;51.442;6.778;2023-01-30T11:46:28;101560.44;;;7.91;71.97
67697;BME280;54486;51.442;6.778;2023-01-30T11:49:03;101560.53;;;7.98;71.33
67697;BME280;54486;51.442;6.778;2023-01-30T11:51:51;101569.13;;;7.94;71.58
67697;BME280;54486;51.442;6.778;2023-01-30T11:54:19;101559.66;;;7.96;71.84
67697;BME280;54486;51.442;6.778;2023-01-30T11:59:31;101568.38;;;8.02;71.60
67697;BME280;54486;51.442;6.778;2023-01-30T12:02:12;101562.25;;;7.96;71.87
67697;BME280;54486;51.442;6.778;2023-01-30T12:04:42;101557.16;;;8.03;71.04
67697;BME280;54486;51.442;6.778;2023-01-30T12:07:43;101559.84;;;8.09;72.01
67697;BME280;54486;51.442;6.778;2023-01-30T12:12:52;101572.00;;;8.10;70.95
67697;BME280;54486;51.442;6.778;2023-01-30T12:15:24;101558.97;;;8.08;71.06
67697;BME280;54486;51.442;6.778;2023-01-30T12:17:57;101564.16;;;8.08;70.84
67697;BME280;54486;51.442;6.778;2023-01-30T12:20:31;101558.25;;;8.18;71.02
67697;BME280;54486;51.442;6.778;2023-01-30T12:25:43;101561.91;;;8.28;70.49
67697;BME280;54486;51.442;6.778;2023-01-30T12:31:00;101565.03;;;8.09;70.75
67697;BME280;54486;51.442;6.778;2023-01-30T12:33:31;101557.28;;;8.10;70.93
67697;BME280;54486;51.442;6.778;2023-01-30T12:38:49;101584.84;;;8.02;71.16
67697;BME280;54486;51.442;6.778;2023-01-30T12:41:57;101580.69;;;8.12;70.32
67697;BME280;54486;51.442;6.778;2023-01-30T12:46:51;101579.44;;;8.41;68.96
67697;BME280;54486;51.442;6.778;2023-01-30T13:07:55;101584.47;;;8.29;68.90
67697;BME280;54486;51.442;6.778;2023-01-30T13:16:09;101596.41;;;8.21;70.24
67697;BME280;54486;51.442;6.778;2023-01-30T13:18:48;101617.22;;;8.21;68.27
67697;BME280;54486;51.442;6.778;2023-01-30T13:21:27;101601.69;;;8.27;68.01
67697;BME280;54486;51.442;6.778;2023-01-30T13:26:29;101610.53;;;8.35;68.34
67697;BME280;54486;51.442;6.778;2023-01-30T13:29:22;101648.88;;;8.48;67.96
67697;BME280;54486;51.442;6.778;2023-01-30T13:31:51;101621.13;;;8.45;69.15
67697;BME280;54486;51.442;6.778;2023-01-30T13:34:42;101613.22;;;8.41;68.58
67697;BME280;54486;51.442;6.778;2023-01-30T13:37:10;101609.78;;;8.42;67.83
67697;BME280;54486;51.442;6.778;2023-01-30T13:39:57;101621.03;;;8.41;68.45
67697;BME280;54486;51.442;6.778;2023-01-30T13:42:35;101632.22;;;8.37;68.79
67697;BME280;54486;51.442;6.778;2023-01-30T13:45:04;101627.81;;;8.33;69.02
67697;BME280;54486;51.442;6.778;2023-01-30T13:47:39;101634.88;;;8.40;68.63
67697;BME280;54486;51.442;6.778;2023-01-30T13:50:17;101634.91;;;8.43;68.40
67697;BME280;54486;51.442;6.778;2023-01-30T13:55:40;101643.31;;;8.27;71.34
67697;BME280;54486;51.442;6.778;2023-01-30T14:00:53;101653.69;;;8.27;70.69
67697;BME280;54486;51.442;6.778;2023-01-30T14:03:22;101658.91;;;8.27;70.66
67697;BME280;54486;51.442;6.778;2023-01-30T14:08:21;101664.22;;;8.33;69.73
67697;BME280;54486;51.442;6.778;2023-01-30T14:10:49;101672.03;;;8.33;69.57
67697;BME280;54486;51.442;6.778;2023-01-30T14:13:16;101664.22;;;8.33;69.67
67697;BME280;54486;51.442;6.778;2023-01-30T14:18:31;101675.16;;;8.66;68.34
67697;BME280;54486;51.442;6.778;2023-01-30T14:21:15;101673.09;;;8.44;68.46
67697;BME280;54486;51.442;6.778;2023-01-30T14:24:01;101679.84;;;8.33;68.76
67697;BME280;54486;51.442;6.778;2023-01-30T14:31:59;101689.81;;;8.09;70.40
67697;BME280;54486;51.442;6.778;2023-01-30T14:34:40;101692.44;;;8.10;70.50
67697;BME280;54486;51.442;6.778;2023-01-30T14:39:55;101695.19;;;8.19;70.40
67697;BME280;54486;51.442;6.778;2023-01-30T14:42:24;101702.78;;;8.09;69.73
67697;BME280;54486;51.442;6.778;2023-01-30T14:45:12;101695.09;;;8.15;69.93
67697;BME280;54486;51.442;6.778;2023-01-30T14:47:40;101704.47;;;8.05;70.07
67697;BME280;54486;51.442;6.778;2023-01-30T14:50:15;101718.28;;;8.03;70.46
67697;BME280;54486;51.442;6.778;2023-01-30T14:52:45;101722.75;;;8.10;70.02
67697;BME280;54486;51.442;6.778;2023-01-30T14:55:17;101733.09;;;8.07;70.12
67697;BME280;54486;51.442;6.778;2023-01-30T14:57:53;101741.63;;;7.99;70.36
67697;BME280;54486;51.442;6.778;2023-01-30T15:00:39;101741.72;;;8.06;70.74
67697;BME280;54486;51.442;6.778;2023-01-30T15:03:08;101747.81;;;8.06;70.69
67697;BME280;54486;51.442;6.778;2023-01-30T15:05:41;101749.75;;;8.16;70.86
67697;BME280;54486;51.442;6.778;2023-01-30T15:08:15;101766.13;;;8.14;70.45
67697;BME280;54486;51.442;6.778;2023-01-30T15:10:52;101762.53;;;8.06;71.37
67697;BME280;54486;51.442;6.778;2023-01-30T15:32:21;101812.56;;;7.95;72.73
67697;BME280;54486;51.442;6.778;2023-01-30T15:42:47;101813.41;;;7.94;72.43